sensor_id;sensor_type;location;lat;lon;timestamp;P1;durP1;ratioP1;P2;durP2;ratioP2
7001;SDS011;3541;53.230;10.518;2023-03-01T00:00:15;9.77;;;6.43;;
7001;SDS011;3541;53.230;10.518;2023-03-01T00:02:43;14.67;;;6.77;;
7001;SDS011;3541;53.230;10.518;2023-03-01T00:05:09;10.87;;;6.80;;
7001;SDS011;3541;53.230;10.518;2023-03-01T00:07:37;9.40;;;6.37;;
7001;SDS011;3541;53.230;10.518;2023-03-01T00:10:04;9.90;;;6.17;;
7001;SDS011;3541;53.230;10.518;2023-03-01T00:12:31;11.57;;;6.07;;
7001;SDS011;3541;53.230;10.518;2023-03-01T00:14:58;11.17;;;6.13;;
7001;SDS011;3541;53.230;10.518;2023-03-01T00:17:24;8.00;;;5.60;;
7001;SDS011;3541;53.230;10.518;2023-03-01T00:19:51;10.63;;;5.90;;
7001;SDS011;3541;53.230;10.518;2023-03-01T00:22:17;8.97;;;5.70;;
7001;SDS011;3541;53.230;10.518;2023-03-01T00:24:45;9.07;;;6.10;;
7001;SDS011;3541;53.230;10.518;2023-03-01T00:27:12;7.93;;;5.23;;
7001;SDS011;3541;53.230;10.518;2023-03-01T00:29:38;7.07;;;4.63;;
7001;SDS011;3541;53.230;10.518;2023-03-01T00:32:05;11.33;;;5.57;;
7001;SDS011;3541;53.230;10.518;2023-03-01T00:34:31;6.40;;;4.80;;
7001;SDS011;3541;53.230;10.518;2023-03-01T00:36:58;7.40;;;4.63;;
7001;SDS011;3541;53.230;10.518;2023-03-01T00:39:30;8.73;;;5.20;;
7001;SDS011;3541;53.230;10.518;2023-03-01T00:41:58;7.57;;;4.77;;
7001;SDS011;3541;53.230;10.518;2023-03-01T00:44:25;8.87;;;5.00;;
7001;SDS011;3541;53.230;10.518;2023-03-01T00:46:53;7.03;;;4.23;;
7001;SDS011;3541;53.230;10.518;2023-03-01T00:49:19;9.07;;;5.23;;
7001;SDS011;3541;53.230;10.518;2023-03-01T00:51:46;9.37;;;4.90;;
7001;SDS011;3541;53.230;10.518;2023-03-01T00:54:12;12.40;;;5.47;;
7001;SDS011;3541;53.230;10.518;2023-03-01T00:56:39;10.53;;;6.10;;
7001;SDS011;3541;53.230;10.518;2023-03-01T00:59:07;10.33;;;5.10;;
7001;SDS011;3541;53.230;10.518;2023-03-01T01:01:33;8.07;;;5.13;;
7001;SDS011;3541;53.230;10.518;2023-03-01T01:04:00;7.70;;;4.67;;
7001;SDS011;3541;53.230;10.518;2023-03-01T01:06:29;8.67;;;4.80;;
7001;SDS011;3541;53.230;10.518;2023-03-01T01:08:58;8.13;;;4.90;;
7001;SDS011;3541;53.230;10.518;2023-03-01T01:11:27;8.83;;;4.83;;
7001;SDS011;3541;53.230;10.518;2023-03-01T01:13:55;7.07;;;4.60;;
7001;SDS011;3541;53.230;10.518;2023-03-01T01:16:24;8.53;;;4.30;;
7001;SDS011;3541;53.230;10.518;2023-03-01T01:18:52;6.27;;;4.37;;
7001;SDS011;3541;53.230;10.518;2023-03-01T01:21:20;7.73;;;4.47;;
7001;SDS011;3541;53.230;10.518;2023-03-01T01:23:48;10.27;;;4.50;;
7001;SDS011;3541;53.230;10.518;2023-03-01T01:26:16;7.57;;;4.77;;
7001;SDS011;3541;53.230;10.518;2023-03-01T01:28:44;8.23;;;4.57;;
7001;SDS011;3541;53.230;10.518;2023-03-01T01:31:11;8.97;;;4.80;;
7001;SDS011;3541;53.230;10.518;2023-03-01T01:33:40;7.70;;;4.93;;
7001;SDS011;3541;53.230;10.518;2023-03-01T01:36:07;9.00;;;5.03;;
7001;SDS011;3541;53.230;10.518;2023-03-01T01:38:34;7.83;;;4.73;;
7001;SDS011;3541;53.230;10.518;2023-03-01T01:41:01;9.17;;;4.80;;
7001;SDS011;3541;53.230;10.518;2023-03-01T01:43:28;9.97;;;4.93;;
7001;SDS011;3541;53.230;10.518;2023-03-01T01:45:58;9.50;;;5.30;;
7001;SDS011;3541;53.230;10.518;2023-03-01T01:48:28;8.53;;;5.40;;
7001;SDS011;3541;53.230;10.518;2023-03-01T01:51:06;8.60;;;5.00;;
7001;SDS011;3541;53.230;10.518;2023-03-01T01:53:35;9.97;;;5.10;;
7001;SDS011;3541;53.230;10.518;2023-03-01T01:56:04;10.77;;;5.30;;
7001;SDS011;3541;53.230;10.518;2023-03-01T01:58:33;8.73;;;5.13;;
7001;SDS011;3541;53.230;10.518;2023-03-01T02:01:00;7.57;;;4.97;;
7001;SDS011;3541;53.230;10.518;2023-03-01T02:03:29;7.10;;;4.27;;
7001;SDS011;3541;53.230;10.518;2023-03-01T02:06:03;8.07;;;4.47;;
7001;SDS011;3541;53.230;10.518;2023-03-01T02:08:35;7.17;;;4.00;;
7001;SDS011;3541;53.230;10.518;2023-03-01T02:11:04;5.20;;;4.13;;
7001;SDS011;3541;53.230;10.518;2023-03-01T02:13:32;7.13;;;4.20;;
7001;SDS011;3541;53.230;10.518;2023-03-01T02:16:02;7.13;;;4.70;;
7001;SDS011;3541;53.230;10.518;2023-03-01T02:18:29;8.00;;;4.43;;
7001;SDS011;3541;53.230;10.518;2023-03-01T02:20:59;8.93;;;4.20;;
7001;SDS011;3541;53.230;10.518;2023-03-01T02:23:35;6.57;;;4.13;;
7001;SDS011;3541;53.230;10.518;2023-03-01T02:26:04;6.67;;;4.17;;
7001;SDS011;3541;53.230;10.518;2023-03-01T02:28:38;7.63;;;3.93;;
7001;SDS011;3541;53.230;10.518;2023-03-01T02:31:06;6.50;;;3.87;;
7001;SDS011;3541;53.230;10.518;2023-03-01T02:33:52;8.13;;;4.03;;
7001;SDS011;3541;53.230;10.518;2023-03-01T02:36:20;6.13;;;3.63;;
7001;SDS011;3541;53.230;10.518;2023-03-01T02:38:49;8.60;;;3.77;;
7001;SDS011;3541;53.230;10.518;2023-03-01T02:41:19;6.37;;;4.30;;
7001;SDS011;3541;53.230;10.518;2023-03-01T02:43:49;6.47;;;4.30;;
7001;SDS011;3541;53.230;10.518;2023-03-01T02:46:16;6.27;;;3.80;;
7001;SDS011;3541;53.230;10.518;2023-03-01T02:48:45;6.87;;;4.10;;
7001;SDS011;3541;53.230;10.518;2023-03-01T02:51:17;7.87;;;4.30;;
7001;SDS011;3541;53.230;10.518;2023-03-01T02:53:55;5.47;;;3.80;;
7001;SDS011;3541;53.230;10.518;2023-03-01T02:56:30;5.47;;;3.80;;
7001;SDS011;3541;53.230;10.518;2023-03-01T02:58:58;6.60;;;3.80;;
7001;SDS011;3541;53.230;10.518;2023-03-01T03:01:26;4.97;;;3.60;;
7001;SDS011;3541;53.230;10.518;2023-03-01T03:04:01;6.83;;;3.03;;
7001;SDS011;3541;53.230;10.518;2023-03-01T03:06:28;5.40;;;3.50;;
7001;SDS011;3541;53.230;10.518;2023-03-01T03:08:55;6.07;;;3.97;;
7001;SDS011;3541;53.230;10.518;2023-03-01T03:11:21;4.73;;;3.27;;
7001;SDS011;3541;53.230;10.518;2023-03-01T03:13:48;5.47;;;3.50;;
7001;SDS011;3541;53.230;10.518;2023-03-01T03:16:16;7.63;;;3.40;;
7001;SDS011;3541;53.230;10.518;2023-03-01T03:18:43;4.37;;;3.47;;
7001;SDS011;3541;53.230;10.518;2023-03-01T03:21:09;5.57;;;3.67;;
7001;SDS011;3541;53.230;10.518;2023-03-01T03:23:38;5.07;;;3.90;;
7001;SDS011;3541;53.230;10.518;2023-03-01T03:26:04;5.43;;;3.77;;
7001;SDS011;3541;53.230;10.518;2023-03-01T03:28:32;5.03;;;4.27;;
7001;SDS011;3541;53.230;10.518;2023-03-01T03:31:00;4.73;;;3.20;;
7001;SDS011;3541;53.230;10.518;2023-03-01T03:33:29;7.13;;;3.63;;
7001;SDS011;3541;53.230;10.518;2023-03-01T03:35:56;5.77;;;3.33;;
7001;SDS011;3541;53.230;10.518;2023-03-01T03:38:23;5.37;;;3.37;;
7001;SDS011;3541;53.230;10.518;2023-03-01T03:40:50;5.47;;;3.47;;
7001;SDS011;3541;53.230;10.518;2023-03-01T03:43:18;5.53;;;3.30;;
7001;SDS011;3541;53.230;10.518;2023-03-01T03:45:47;6.53;;;3.27;;
7001;SDS011;3541;53.230;10.518;2023-03-01T03:48:14;3.93;;;3.10;;
7001;SDS011;3541;53.230;10.518;2023-03-01T03:50:46;6.80;;;3.10;;
7001;SDS011;3541;53.230;10.518;2023-03-01T03:53:14;4.87;;;3.00;;
7001;SDS011;3541;53.230;10.518;2023-03-01T03:55:41;4.73;;;3.00;;
7001;SDS011;3541;53.230;10.518;2023-03-01T03:58:09;3.53;;;3.13;;
7001;SDS011;3541;53.230;10.518;2023-03-01T04:00:37;4.67;;;2.90;;
7001;SDS011;3541;53.230;10.518;2023-03-01T04:03:06;4.90;;;3.23;;
7001;SDS011;3541;53.230;10.518;2023-03-01T04:05:32;3.77;;;2.60;;
7001;SDS011;3541;53.230;10.518;2023-03-01T04:08:01;4.33;;;2.80;;
7001;SDS011;3541;53.230;10.518;2023-03-01T04:10:28;4.77;;;2.70;;
7001;SDS011;3541;53.230;10.518;2023-03-01T04:12:56;4.63;;;2.53;;
7001;SDS011;3541;53.230;10.518;2023-03-01T04:15:23;3.10;;;2.43;;
7001;SDS011;3541;53.230;10.518;2023-03-01T04:17:51;5.43;;;3.57;;
7001;SDS011;3541;53.230;10.518;2023-03-01T04:20:19;2.90;;;2.60;;
7001;SDS011;3541;53.230;10.518;2023-03-01T04:22:50;3.17;;;2.53;;
7001;SDS011;3541;53.230;10.518;2023-03-01T04:25:19;2.97;;;2.57;;
7001;SDS011;3541;53.230;10.518;2023-03-01T04:27:45;3.23;;;2.57;;
7001;SDS011;3541;53.230;10.518;2023-03-01T04:30:12;3.03;;;2.60;;
7001;SDS011;3541;53.230;10.518;2023-03-01T04:32:39;3.93;;;2.67;;
7001;SDS011;3541;53.230;10.518;2023-03-01T04:35:05;4.73;;;2.77;;
7001;SDS011;3541;53.230;10.518;2023-03-01T04:37:32;4.43;;;3.23;;
7001;SDS011;3541;53.230;10.518;2023-03-01T04:39:59;6.53;;;2.83;;
7001;SDS011;3541;53.230;10.518;2023-03-01T04:42:28;5.37;;;3.20;;
7001;SDS011;3541;53.230;10.518;2023-03-01T04:44:54;4.63;;;2.90;;
7001;SDS011;3541;53.230;10.518;2023-03-01T04:47:21;6.80;;;3.20;;
7001;SDS011;3541;53.230;10.518;2023-03-01T04:49:47;4.17;;;3.00;;
7001;SDS011;3541;53.230;10.518;2023-03-01T04:52:14;4.13;;;2.53;;
7001;SDS011;3541;53.230;10.518;2023-03-01T04:54:40;7.27;;;3.13;;
7001;SDS011;3541;53.230;10.518;2023-03-01T04:57:08;4.73;;;3.07;;
7001;SDS011;3541;53.230;10.518;2023-03-01T04:59:35;5.83;;;3.07;;
7001;SDS011;3541;53.230;10.518;2023-03-01T05:02:02;5.60;;;2.63;;
7001;SDS011;3541;53.230;10.518;2023-03-01T05:04:30;5.70;;;2.93;;
7001;SDS011;3541;53.230;10.518;2023-03-01T05:06:56;4.67;;;2.77;;
7001;SDS011;3541;53.230;10.518;2023-03-01T05:09:23;3.23;;;2.50;;
7001;SDS011;3541;53.230;10.518;2023-03-01T05:11:50;4.63;;;2.93;;
7001;SDS011;3541;53.230;10.518;2023-03-01T05:14:16;5.67;;;3.00;;
7001;SDS011;3541;53.230;10.518;2023-03-01T05:16:44;7.17;;;3.00;;
7001;SDS011;3541;53.230;10.518;2023-03-01T05:19:11;7.53;;;3.30;;
7001;SDS011;3541;53.230;10.518;2023-03-01T05:21:40;4.93;;;3.17;;
7001;SDS011;3541;53.230;10.518;2023-03-01T05:24:21;4.13;;;2.57;;
7001;SDS011;3541;53.230;10.518;2023-03-01T05:26:47;4.03;;;3.00;;
7001;SDS011;3541;53.230;10.518;2023-03-01T05:29:14;4.63;;;2.80;;
7001;SDS011;3541;53.230;10.518;2023-03-01T05:31:40;5.43;;;2.70;;
7001;SDS011;3541;53.230;10.518;2023-03-01T05:34:08;5.13;;;3.17;;
7001;SDS011;3541;53.230;10.518;2023-03-01T05:36:37;4.10;;;2.77;;
7001;SDS011;3541;53.230;10.518;2023-03-01T05:39:04;5.07;;;2.80;;
7001;SDS011;3541;53.230;10.518;2023-03-01T05:41:31;3.23;;;2.77;;
7001;SDS011;3541;53.230;10.518;2023-03-01T05:43:58;3.73;;;3.03;;
7001;SDS011;3541;53.230;10.518;2023-03-01T05:46:24;5.43;;;2.80;;
7001;SDS011;3541;53.230;10.518;2023-03-01T05:48:51;4.07;;;2.60;;
7001;SDS011;3541;53.230;10.518;2023-03-01T05:51:19;3.67;;;2.67;;
7001;SDS011;3541;53.230;10.518;2023-03-01T05:53:47;4.23;;;2.90;;
7001;SDS011;3541;53.230;10.518;2023-03-01T05:56:13;4.57;;;2.50;;
7001;SDS011;3541;53.230;10.518;2023-03-01T05:58:40;11.20;;;7.37;;
7001;SDS011;3541;53.230;10.518;2023-03-01T06:01:10;9.50;;;6.77;;
7001;SDS011;3541;53.230;10.518;2023-03-01T06:03:38;34.90;;;19.27;;
7001;SDS011;3541;53.230;10.518;2023-03-01T06:06:04;25.90;;;16.20;;
7001;SDS011;3541;53.230;10.518;2023-03-01T06:08:32;20.13;;;11.13;;
7001;SDS011;3541;53.230;10.518;2023-03-01T06:10:59;14.73;;;8.70;;
7001;SDS011;3541;53.230;10.518;2023-03-01T06:13:26;11.30;;;7.07;;
7001;SDS011;3541;53.230;10.518;2023-03-01T06:15:52;9.80;;;5.20;;
7001;SDS011;3541;53.230;10.518;2023-03-01T06:18:19;7.13;;;5.10;;
7001;SDS011;3541;53.230;10.518;2023-03-01T06:20:52;6.83;;;4.70;;
7001;SDS011;3541;53.230;10.518;2023-03-01T06:23:18;5.43;;;3.37;;
7001;SDS011;3541;53.230;10.518;2023-03-01T06:25:46;5.70;;;3.60;;
7001;SDS011;3541;53.230;10.518;2023-03-01T06:28:13;6.23;;;3.60;;
7001;SDS011;3541;53.230;10.518;2023-03-01T06:30:39;5.80;;;3.83;;
7001;SDS011;3541;53.230;10.518;2023-03-01T06:33:06;11.03;;;5.27;;
7001;SDS011;3541;53.230;10.518;2023-03-01T06:35:33;14.43;;;8.00;;
7001;SDS011;3541;53.230;10.518;2023-03-01T06:38:00;8.33;;;5.40;;
7001;SDS011;3541;53.230;10.518;2023-03-01T06:40:28;12.50;;;6.17;;
7001;SDS011;3541;53.230;10.518;2023-03-01T06:42:57;8.27;;;4.73;;
7001;SDS011;3541;53.230;10.518;2023-03-01T06:45:24;7.80;;;4.53;;
7001;SDS011;3541;53.230;10.518;2023-03-01T06:47:51;8.40;;;5.40;;
7001;SDS011;3541;53.230;10.518;2023-03-01T06:50:17;19.17;;;10.27;;
7001;SDS011;3541;53.230;10.518;2023-03-01T06:52:44;12.03;;;6.77;;
7001;SDS011;3541;53.230;10.518;2023-03-01T06:55:11;9.00;;;4.90;;
7001;SDS011;3541;53.230;10.518;2023-03-01T06:57:38;5.17;;;4.20;;
7001;SDS011;3541;53.230;10.518;2023-03-01T07:00:07;6.60;;;4.00;;
7001;SDS011;3541;53.230;10.518;2023-03-01T07:02:34;8.80;;;5.03;;
7001;SDS011;3541;53.230;10.518;2023-03-01T07:05:01;14.80;;;6.50;;
7001;SDS011;3541;53.230;10.518;2023-03-01T07:07:28;6.40;;;4.23;;
7001;SDS011;3541;53.230;10.518;2023-03-01T07:09:54;7.63;;;5.63;;
7001;SDS011;3541;53.230;10.518;2023-03-01T07:12:21;12.17;;;5.90;;
7001;SDS011;3541;53.230;10.518;2023-03-01T07:14:47;7.83;;;4.70;;
7001;SDS011;3541;53.230;10.518;2023-03-01T07:17:15;6.20;;;4.30;;
7001;SDS011;3541;53.230;10.518;2023-03-01T07:19:41;7.27;;;4.40;;
7001;SDS011;3541;53.230;10.518;2023-03-01T07:22:09;6.30;;;4.30;;
7001;SDS011;3541;53.230;10.518;2023-03-01T07:24:36;8.70;;;4.20;;
7001;SDS011;3541;53.230;10.518;2023-03-01T07:27:02;6.80;;;4.03;;
7001;SDS011;3541;53.230;10.518;2023-03-01T07:29:29;7.33;;;4.00;;
7001;SDS011;3541;53.230;10.518;2023-03-01T07:31:56;6.30;;;3.70;;
7001;SDS011;3541;53.230;10.518;2023-03-01T07:34:24;7.37;;;4.30;;
7001;SDS011;3541;53.230;10.518;2023-03-01T07:36:51;10.03;;;4.87;;
7001;SDS011;3541;53.230;10.518;2023-03-01T07:39:17;9.60;;;5.00;;
7001;SDS011;3541;53.230;10.518;2023-03-01T07:41:44;6.67;;;4.37;;
7001;SDS011;3541;53.230;10.518;2023-03-01T07:44:10;7.77;;;3.83;;
7001;SDS011;3541;53.230;10.518;2023-03-01T07:46:37;11.00;;;4.20;;
7001;SDS011;3541;53.230;10.518;2023-03-01T07:49:04;7.60;;;4.00;;
7001;SDS011;3541;53.230;10.518;2023-03-01T07:51:31;6.43;;;3.07;;
7001;SDS011;3541;53.230;10.518;2023-03-01T07:53:58;4.47;;;3.67;;
7001;SDS011;3541;53.230;10.518;2023-03-01T07:56:25;9.43;;;3.90;;
7001;SDS011;3541;53.230;10.518;2023-03-01T07:58:51;6.67;;;4.00;;
7001;SDS011;3541;53.230;10.518;2023-03-01T08:01:18;5.60;;;3.30;;
7001;SDS011;3541;53.230;10.518;2023-03-01T08:03:46;4.63;;;3.20;;
7001;SDS011;3541;53.230;10.518;2023-03-01T08:06:14;4.83;;;3.07;;
7001;SDS011;3541;53.230;10.518;2023-03-01T08:08:43;6.60;;;3.20;;
7001;SDS011;3541;53.230;10.518;2023-03-01T08:11:10;10.93;;;3.20;;
7001;SDS011;3541;53.230;10.518;2023-03-01T08:13:38;5.03;;;3.50;;
7001;SDS011;3541;53.230;10.518;2023-03-01T08:16:06;5.80;;;2.80;;
7001;SDS011;3541;53.230;10.518;2023-03-01T08:18:34;4.27;;;3.17;;
7001;SDS011;3541;53.230;10.518;2023-03-01T08:21:01;7.60;;;3.10;;
7001;SDS011;3541;53.230;10.518;2023-03-01T08:23:28;5.60;;;3.00;;
7001;SDS011;3541;53.230;10.518;2023-03-01T08:25:59;6.83;;;2.73;;
7001;SDS011;3541;53.230;10.518;2023-03-01T08:28:29;6.67;;;3.27;;
7001;SDS011;3541;53.230;10.518;2023-03-01T08:30:56;9.90;;;3.83;;
7001;SDS011;3541;53.230;10.518;2023-03-01T08:33:22;9.03;;;6.33;;
7001;SDS011;3541;53.230;10.518;2023-03-01T08:35:49;8.77;;;4.03;;
7001;SDS011;3541;53.230;10.518;2023-03-01T08:38:15;4.27;;;3.50;;
7001;SDS011;3541;53.230;10.518;2023-03-01T08:40:42;6.37;;;3.47;;
7001;SDS011;3541;53.230;10.518;2023-03-01T08:43:10;4.93;;;2.70;;
7001;SDS011;3541;53.230;10.518;2023-03-01T08:45:36;9.00;;;2.93;;
7001;SDS011;3541;53.230;10.518;2023-03-01T08:48:03;4.57;;;3.07;;
7001;SDS011;3541;53.230;10.518;2023-03-01T08:50:30;4.50;;;2.80;;
7001;SDS011;3541;53.230;10.518;2023-03-01T08:52:56;4.57;;;2.60;;
7001;SDS011;3541;53.230;10.518;2023-03-01T08:55:23;3.67;;;2.90;;
7001;SDS011;3541;53.230;10.518;2023-03-01T08:57:49;6.40;;;3.20;;
7001;SDS011;3541;53.230;10.518;2023-03-01T09:00:17;7.67;;;3.53;;
7001;SDS011;3541;53.230;10.518;2023-03-01T09:02:45;5.03;;;3.03;;
7001;SDS011;3541;53.230;10.518;2023-03-01T09:05:11;5.77;;;4.13;;
7001;SDS011;3541;53.230;10.518;2023-03-01T09:07:38;4.10;;;2.80;;
7001;SDS011;3541;53.230;10.518;2023-03-01T09:10:05;5.73;;;3.60;;
7001;SDS011;3541;53.230;10.518;2023-03-01T09:12:32;4.93;;;3.63;;
7001;SDS011;3541;53.230;10.518;2023-03-01T09:14:59;4.90;;;2.90;;
7001;SDS011;3541;53.230;10.518;2023-03-01T09:17:27;9.20;;;3.33;;
7001;SDS011;3541;53.230;10.518;2023-03-01T09:19:53;7.97;;;4.30;;
7001;SDS011;3541;53.230;10.518;2023-03-01T09:22:20;7.17;;;4.10;;
7001;SDS011;3541;53.230;10.518;2023-03-01T09:24:46;7.60;;;4.30;;
7001;SDS011;3541;53.230;10.518;2023-03-01T09:27:13;7.77;;;4.13;;
7001;SDS011;3541;53.230;10.518;2023-03-01T09:29:43;8.60;;;4.97;;
7001;SDS011;3541;53.230;10.518;2023-03-01T09:32:10;8.43;;;5.03;;
7001;SDS011;3541;53.230;10.518;2023-03-01T09:34:37;9.07;;;5.17;;
7001;SDS011;3541;53.230;10.518;2023-03-01T09:37:18;10.73;;;6.03;;
7001;SDS011;3541;53.230;10.518;2023-03-01T09:39:45;10.87;;;6.70;;
7001;SDS011;3541;53.230;10.518;2023-03-01T09:42:12;10.17;;;5.43;;
7001;SDS011;3541;53.230;10.518;2023-03-01T09:44:42;11.30;;;6.33;;
7001;SDS011;3541;53.230;10.518;2023-03-01T09:47:16;11.83;;;6.00;;
7001;SDS011;3541;53.230;10.518;2023-03-01T09:49:45;9.47;;;6.17;;
7001;SDS011;3541;53.230;10.518;2023-03-01T09:52:25;9.47;;;6.10;;
7001;SDS011;3541;53.230;10.518;2023-03-01T09:54:59;10.23;;;6.23;;
7001;SDS011;3541;53.230;10.518;2023-03-01T09:57:27;11.20;;;6.60;;
7001;SDS011;3541;53.230;10.518;2023-03-01T10:00:11;8.90;;;6.20;;
7001;SDS011;3541;53.230;10.518;2023-03-01T10:02:45;9.80;;;6.37;;
7001;SDS011;3541;53.230;10.518;2023-03-01T10:05:31;11.70;;;6.50;;
7001;SDS011;3541;53.230;10.518;2023-03-01T10:08:19;11.13;;;6.63;;
7001;SDS011;3541;53.230;10.518;2023-03-01T10:10:54;9.43;;;5.93;;
7001;SDS011;3541;53.230;10.518;2023-03-01T10:13:22;12.53;;;6.40;;
7001;SDS011;3541;53.230;10.518;2023-03-01T10:15:53;10.97;;;6.37;;
7001;SDS011;3541;53.230;10.518;2023-03-01T10:18:23;12.03;;;7.00;;
7001;SDS011;3541;53.230;10.518;2023-03-01T10:20:54;11.63;;;6.33;;
7001;SDS011;3541;53.230;10.518;2023-03-01T10:23:24;11.63;;;6.50;;
7001;SDS011;3541;53.230;10.518;2023-03-01T10:25:56;9.37;;;6.00;;
7001;SDS011;3541;53.230;10.518;2023-03-01T10:28:36;12.37;;;7.00;;
7001;SDS011;3541;53.230;10.518;2023-03-01T10:31:13;11.93;;;7.63;;
7001;SDS011;3541;53.230;10.518;2023-03-01T10:33:43;11.67;;;6.80;;
7001;SDS011;3541;53.230;10.518;2023-03-01T10:36:11;11.07;;;6.63;;
7001;SDS011;3541;53.230;10.518;2023-03-01T10:38:47;10.43;;;6.13;;
7001;SDS011;3541;53.230;10.518;2023-03-01T10:41:17;10.83;;;6.73;;
7001;SDS011;3541;53.230;10.518;2023-03-01T10:43:44;15.60;;;7.30;;
7001;SDS011;3541;53.230;10.518;2023-03-01T10:46:22;10.47;;;6.90;;
7001;SDS011;3541;53.230;10.518;2023-03-01T10:49:06;11.10;;;6.30;;
7001;SDS011;3541;53.230;10.518;2023-03-01T10:51:40;9.30;;;6.00;;
7001;SDS011;3541;53.230;10.518;2023-03-01T10:54:15;11.13;;;6.93;;
7001;SDS011;3541;53.230;10.518;2023-03-01T10:56:47;12.40;;;7.30;;
7001;SDS011;3541;53.230;10.518;2023-03-01T10:59:22;10.27;;;6.70;;
7001;SDS011;3541;53.230;10.518;2023-03-01T11:02:03;8.60;;;6.43;;
7001;SDS011;3541;53.230;10.518;2023-03-01T11:04:44;10.03;;;6.43;;
7001;SDS011;3541;53.230;10.518;2023-03-01T11:07:24;10.07;;;6.80;;
7001;SDS011;3541;53.230;10.518;2023-03-01T11:09:50;11.37;;;7.27;;
7001;SDS011;3541;53.230;10.518;2023-03-01T11:12:17;11.73;;;7.20;;
7001;SDS011;3541;53.230;10.518;2023-03-01T11:14:46;13.07;;;7.50;;
7001;SDS011;3541;53.230;10.518;2023-03-01T11:17:15;12.27;;;7.77;;
7001;SDS011;3541;53.230;10.518;2023-03-01T11:19:59;10.93;;;7.80;;
7001;SDS011;3541;53.230;10.518;2023-03-01T11:22:30;10.73;;;8.30;;
7001;SDS011;3541;53.230;10.518;2023-03-01T11:24:59;13.27;;;7.90;;
7001;SDS011;3541;53.230;10.518;2023-03-01T11:27:27;11.83;;;7.97;;
7001;SDS011;3541;53.230;10.518;2023-03-01T11:29:57;9.93;;;7.80;;
7001;SDS011;3541;53.230;10.518;2023-03-01T11:32:31;11.10;;;8.20;;
7001;SDS011;3541;53.230;10.518;2023-03-01T11:35:02;11.10;;;7.43;;
7001;SDS011;3541;53.230;10.518;2023-03-01T11:37:38;11.97;;;7.60;;
7001;SDS011;3541;53.230;10.518;2023-03-01T11:40:13;12.70;;;7.80;;
7001;SDS011;3541;53.230;10.518;2023-03-01T11:42:48;11.67;;;7.47;;
7001;SDS011;3541;53.230;10.518;2023-03-01T11:45:21;12.80;;;7.57;;
7001;SDS011;3541;53.230;10.518;2023-03-01T11:47:54;10.33;;;7.40;;
7001;SDS011;3541;53.230;10.518;2023-03-01T11:50:34;10.57;;;7.50;;
7001;SDS011;3541;53.230;10.518;2023-03-01T11:53:13;11.10;;;7.63;;
7001;SDS011;3541;53.230;10.518;2023-03-01T11:55:54;12.33;;;7.53;;
7001;SDS011;3541;53.230;10.518;2023-03-01T11:58:39;10.50;;;7.13;;
7001;SDS011;3541;53.230;10.518;2023-03-01T12:01:23;11.03;;;7.57;;
7001;SDS011;3541;53.230;10.518;2023-03-01T12:04:16;10.60;;;7.50;;
7001;SDS011;3541;53.230;10.518;2023-03-01T12:06:59;9.97;;;7.50;;
7001;SDS011;3541;53.230;10.518;2023-03-01T12:09:33;12.83;;;7.37;;
7001;SDS011;3541;53.230;10.518;2023-03-01T12:12:12;11.50;;;7.40;;
7001;SDS011;3541;53.230;10.518;2023-03-01T12:15:04;11.73;;;7.67;;
7001;SDS011;3541;53.230;10.518;2023-03-01T12:21:04;10.13;;;7.17;;
7001;SDS011;3541;53.230;10.518;2023-03-01T12:23:48;10.67;;;7.67;;
7001;SDS011;3541;53.230;10.518;2023-03-01T12:26:38;10.53;;;7.47;;
7001;SDS011;3541;53.230;10.518;2023-03-01T12:29:15;9.73;;;7.30;;
7001;SDS011;3541;53.230;10.518;2023-03-01T12:31:57;9.80;;;7.07;;
7001;SDS011;3541;53.230;10.518;2023-03-01T12:34:47;12.00;;;7.70;;
7001;SDS011;3541;53.230;10.518;2023-03-01T12:37:36;11.57;;;7.73;;
7001;SDS011;3541;53.230;10.518;2023-03-01T12:40:17;10.27;;;7.07;;
7001;SDS011;3541;53.230;10.518;2023-03-01T12:42:57;11.60;;;7.47;;
7001;SDS011;3541;53.230;10.518;2023-03-01T12:45:46;11.60;;;7.00;;
7001;SDS011;3541;53.230;10.518;2023-03-01T12:48:29;12.30;;;7.40;;
7001;SDS011;3541;53.230;10.518;2023-03-01T12:51:02;10.60;;;7.73;;
7001;SDS011;3541;53.230;10.518;2023-03-01T12:53:34;11.90;;;8.07;;
7001;SDS011;3541;53.230;10.518;2023-03-01T12:56:05;9.40;;;7.13;;
7001;SDS011;3541;53.230;10.518;2023-03-01T12:58:38;9.83;;;7.43;;
7001;SDS011;3541;53.230;10.518;2023-03-01T13:01:14;10.70;;;7.30;;
7001;SDS011;3541;53.230;10.518;2023-03-01T13:03:56;11.93;;;7.40;;
7001;SDS011;3541;53.230;10.518;2023-03-01T13:06:38;9.50;;;6.87;;
7001;SDS011;3541;53.230;10.518;2023-03-01T13:09:14;12.87;;;7.33;;
7001;SDS011;3541;53.230;10.518;2023-03-01T13:11:48;11.13;;;7.30;;
7001;SDS011;3541;53.230;10.518;2023-03-01T13:17:20;9.10;;;7.10;;
7001;SDS011;3541;53.230;10.518;2023-03-01T13:19:57;9.30;;;6.97;;
7001;SDS011;3541;53.230;10.518;2023-03-01T13:22:25;10.67;;;6.90;;
7001;SDS011;3541;53.230;10.518;2023-03-01T13:25:00;10.23;;;6.97;;
7001;SDS011;3541;53.230;10.518;2023-03-01T13:27:28;9.03;;;6.80;;
7001;SDS011;3541;53.230;10.518;2023-03-01T13:29:57;9.40;;;7.23;;
7001;SDS011;3541;53.230;10.518;2023-03-01T13:32:28;9.87;;;7.00;;
7001;SDS011;3541;53.230;10.518;2023-03-01T13:35:00;11.87;;;7.07;;
7001;SDS011;3541;53.230;10.518;2023-03-01T13:37:30;10.20;;;7.40;;
7001;SDS011;3541;53.230;10.518;2023-03-01T13:39:59;10.67;;;7.00;;
7001;SDS011;3541;53.230;10.518;2023-03-01T13:42:31;8.17;;;6.60;;
7001;SDS011;3541;53.230;10.518;2023-03-01T13:45:03;8.10;;;6.60;;
7001;SDS011;3541;53.230;10.518;2023-03-01T13:47:32;10.30;;;7.30;;
7001;SDS011;3541;53.230;10.518;2023-03-01T13:50:05;8.87;;;6.87;;
7001;SDS011;3541;53.230;10.518;2023-03-01T13:52:36;9.03;;;6.83;;
7001;SDS011;3541;53.230;10.518;2023-03-01T13:55:06;9.27;;;6.80;;
7001;SDS011;3541;53.230;10.518;2023-03-01T13:57:43;9.73;;;7.63;;
7001;SDS011;3541;53.230;10.518;2023-03-01T14:00:26;8.50;;;6.50;;
7001;SDS011;3541;53.230;10.518;2023-03-01T14:03:04;10.20;;;6.87;;
7001;SDS011;3541;53.230;10.518;2023-03-01T14:05:35;11.40;;;7.53;;
7001;SDS011;3541;53.230;10.518;2023-03-01T14:08:02;10.90;;;7.40;;
7001;SDS011;3541;53.230;10.518;2023-03-01T14:10:30;10.20;;;7.10;;
7001;SDS011;3541;53.230;10.518;2023-03-01T14:13:04;9.80;;;7.17;;
7001;SDS011;3541;53.230;10.518;2023-03-01T14:15:43;10.83;;;7.23;;
7001;SDS011;3541;53.230;10.518;2023-03-01T14:18:17;11.53;;;7.33;;
7001;SDS011;3541;53.230;10.518;2023-03-01T14:20:47;9.93;;;7.50;;
7001;SDS011;3541;53.230;10.518;2023-03-01T14:23:17;9.13;;;6.97;;
7001;SDS011;3541;53.230;10.518;2023-03-01T14:25:46;9.47;;;7.30;;
7001;SDS011;3541;53.230;10.518;2023-03-01T14:28:15;7.77;;;6.00;;
7001;SDS011;3541;53.230;10.518;2023-03-01T14:30:46;12.77;;;6.63;;
7001;SDS011;3541;53.230;10.518;2023-03-01T14:33:21;8.13;;;6.17;;
7001;SDS011;3541;53.230;10.518;2023-03-01T14:35:54;7.83;;;6.10;;
7001;SDS011;3541;53.230;10.518;2023-03-01T14:38:23;8.77;;;6.93;;
7001;SDS011;3541;53.230;10.518;2023-03-01T14:40:56;8.20;;;6.23;;
7001;SDS011;3541;53.230;10.518;2023-03-01T14:43:25;8.03;;;5.73;;
7001;SDS011;3541;53.230;10.518;2023-03-01T14:45:53;8.70;;;6.17;;
7001;SDS011;3541;53.230;10.518;2023-03-01T14:48:20;10.20;;;6.60;;
7001;SDS011;3541;53.230;10.518;2023-03-01T14:50:47;8.70;;;6.27;;
7001;SDS011;3541;53.230;10.518;2023-03-01T14:53:16;7.83;;;6.37;;
7001;SDS011;3541;53.230;10.518;2023-03-01T14:55:45;9.27;;;6.97;;
7001;SDS011;3541;53.230;10.518;2023-03-01T14:58:14;9.37;;;7.23;;
7001;SDS011;3541;53.230;10.518;2023-03-01T15:00:45;9.40;;;7.33;;
7001;SDS011;3541;53.230;10.518;2023-03-01T15:03:17;8.47;;;6.90;;
7001;SDS011;3541;53.230;10.518;2023-03-01T15:05:52;9.03;;;6.67;;
7001;SDS011;3541;53.230;10.518;2023-03-01T15:08:19;10.57;;;7.37;;
7001;SDS011;3541;53.230;10.518;2023-03-01T15:10:56;8.40;;;7.00;;
7001;SDS011;3541;53.230;10.518;2023-03-01T15:13:25;9.40;;;6.53;;
7001;SDS011;3541;53.230;10.518;2023-03-01T15:16:00;9.67;;;6.57;;
7001;SDS011;3541;53.230;10.518;2023-03-01T15:18:31;8.60;;;6.20;;
7001;SDS011;3541;53.230;10.518;2023-03-01T15:21:05;9.83;;;7.17;;